createdAt,value
2019-05-25T00:01:06.095Z,9.40
2019-05-25T00:03:37.723Z,9.63
2019-05-25T00:06:08.127Z,9.85
2019-05-25T00:08:38.707Z,9.53
2019-05-25T00:11:09.112Z,9.75
2019-05-25T00:13:38.689Z,9.48
2019-05-25T00:16:08.476Z,9.70
2019-05-25T00:18:37.545Z,9.45
2019-05-25T00:21:06.732Z,9.40
2019-05-25T00:23:36.179Z,9.00
2019-05-25T00:26:05.755Z,9.53
2019-05-25T00:28:35.398Z,9.67
2019-05-25T00:31:04.667Z,9.18
2019-05-25T00:33:34.711Z,9.38
2019-05-25T00:36:04.727Z,9.05
2019-05-25T00:38:34.428Z,8.63
2019-05-25T00:41:04.316Z,9.23
2019-05-25T00:43:33.156Z,8.70
2019-05-25T00:46:02.363Z,8.20
2019-05-25T00:48:31.760Z,8.93
2019-05-25T00:51:01.014Z,8.90
2019-05-25T00:53:30.329Z,9.03
2019-05-25T00:56:01.095Z,9.30
2019-05-25T00:58:30.698Z,8.35
2019-05-25T01:01:00.821Z,8.18
2019-05-25T01:03:30.295Z,8.28
2019-05-25T01:06:00.054Z,8.58
2019-05-25T01:08:29.859Z,8.00
2019-05-25T01:11:00.805Z,8.63
2019-05-25T01:13:29.841Z,8.05
2019-05-25T01:15:58.582Z,8.90
2019-05-25T01:18:29.876Z,8.63
2019-05-25T01:20:58.465Z,8.18
2019-05-25T01:23:27.406Z,8.80
2019-05-25T01:25:59.782Z,8.78
2019-05-25T01:28:28.921Z,8.65
2019-05-25T01:30:58.441Z,7.93
2019-05-25T01:33:30.380Z,7.75
2019-05-25T01:35:59.636Z,8.45
2019-05-25T01:38:29.145Z,8.45
2019-05-25T01:40:58.757Z,9.13
2019-05-25T01:43:29.482Z,8.50
2019-05-25T01:45:58.310Z,9.23
2019-05-25T01:48:27.366Z,9.08
2019-05-25T01:50:56.285Z,9.85
2019-05-25T01:53:25.679Z,10.23
2019-05-25T01:55:54.526Z,9.35
2019-05-25T01:58:24.912Z,9.80
2019-05-25T02:00:54.059Z,10.18
2019-05-25T02:03:23.354Z,9.73
2019-05-25T02:05:52.765Z,10.88
2019-05-25T02:08:21.771Z,10.30
2019-05-25T02:10:51.156Z,9.48
2019-05-25T02:13:20.300Z,10.13
2019-05-25T02:15:50.389Z,9.95
2019-05-25T02:23:19.226Z,9.73
2019-05-25T02:25:48.753Z,9.75
2019-05-25T02:28:17.952Z,9.70
2019-05-25T02:30:49.879Z,9.05
2019-05-25T02:33:22.208Z,9.90
2019-05-25T02:35:51.046Z,9.75
2019-05-25T02:38:19.936Z,9.78
2019-05-25T02:40:49.225Z,10.70
2019-05-25T02:43:18.012Z,9.40
2019-05-25T02:45:47.316Z,10.90
2019-05-25T02:48:16.320Z,9.55
2019-05-25T02:53:15.940Z,9.27
2019-05-25T02:55:45.191Z,9.68
2019-05-25T02:58:15.163Z,10.35
2019-05-25T03:00:45.209Z,9.45
2019-05-25T03:03:14.435Z,10.20
2019-05-25T03:05:43.585Z,9.85
2019-05-25T03:08:14.225Z,9.58
2019-05-25T03:10:43.433Z,10.28
2019-05-25T03:13:12.505Z,10.23
2019-05-25T03:15:41.434Z,11.03
2019-05-25T03:18:10.312Z,9.73
2019-05-25T03:20:39.634Z,9.45
2019-05-25T03:23:08.698Z,10.28
2019-05-25T03:25:49.195Z,10.03
2019-05-25T03:28:08.770Z,10.35
2019-05-25T03:30:39.563Z,10.47
2019-05-25T03:33:08.477Z,10.53
2019-05-25T03:35:38.850Z,10.08
2019-05-25T03:38:07.995Z,10.25
2019-05-25T03:40:37.021Z,10.20
2019-05-25T03:43:07.539Z,10.48
2019-05-25T03:45:38.705Z,9.68
2019-05-25T03:50:36.445Z,10.35
2019-05-25T03:53:06.613Z,10.60
2019-05-25T03:55:36.183Z,9.90
2019-05-25T03:58:05.620Z,11.20
2019-05-25T04:00:34.774Z,10.48
2019-05-25T04:03:03.786Z,9.78
2019-05-25T04:05:33.638Z,10.70
2019-05-25T04:08:03.073Z,10.58
2019-05-25T04:10:32.591Z,11.40
2019-05-25T04:13:02.202Z,10.97
2019-05-25T04:15:31.299Z,11.00
2019-05-25T04:18:00.508Z,10.32
2019-05-25T04:20:29.813Z,10.15
2019-05-25T04:22:59.139Z,10.63
2019-05-25T04:25:28.941Z,11.05
2019-05-25T04:27:58.503Z,11.03
2019-05-25T04:30:28.294Z,10.60
2019-05-25T04:32:57.703Z,10.93
2019-05-25T04:35:28.894Z,10.13
2019-05-25T04:37:58.371Z,10.98
2019-05-25T04:40:27.818Z,10.93
2019-05-25T04:42:57.446Z,10.95
2019-05-25T04:45:27.439Z,10.75
2019-05-25T04:50:33.102Z,10.60
2019-05-25T04:53:02.715Z,11.70
2019-05-25T04:55:32.452Z,10.78
2019-05-25T04:58:02.060Z,11.30
2019-05-25T05:00:31.540Z,10.82
2019-05-25T05:03:00.884Z,10.33
2019-05-25T05:05:30.274Z,11.50
2019-05-25T05:08:00.904Z,11.00
2019-05-25T05:10:30.395Z,9.83
2019-05-25T05:13:00.947Z,11.35
2019-05-25T05:15:35.838Z,11.33
2019-05-25T05:20:50.765Z,10.53
2019-05-25T05:23:20.848Z,10.82
2019-05-25T05:25:50.656Z,11.22
2019-05-25T05:28:19.744Z,11.30
2019-05-25T05:30:50.437Z,12.20
2019-05-25T05:33:19.521Z,10.58
2019-05-25T05:35:48.505Z,12.03
2019-05-25T05:38:41.076Z,7.87
2019-05-25T05:41:10.159Z,7.53
2019-05-25T05:43:39.779Z,8.20
2019-05-25T05:46:13.383Z,8.23
2019-05-25T05:48:43.898Z,7.45
2019-05-25T05:51:19.932Z,7.78
2019-05-25T05:53:49.077Z,7.95
2019-05-25T05:56:18.172Z,7.62
2019-05-25T05:58:48.666Z,8.43
2019-05-25T06:01:17.966Z,8.30
2019-05-25T06:03:46.871Z,8.78
2019-05-25T06:06:15.727Z,8.23
2019-05-25T06:08:44.339Z,8.88
2019-05-25T06:11:13.414Z,8.08
2019-05-25T06:13:42.559Z,8.95
2019-05-25T06:16:11.496Z,8.95
2019-05-25T06:18:40.655Z,8.80
2019-05-25T06:21:10.465Z,8.65
2019-05-25T06:23:39.713Z,8.05
2019-05-25T06:26:08.499Z,9.08
2019-05-25T06:28:37.533Z,8.48
2019-05-25T06:31:06.703Z,8.50
2019-05-25T06:33:35.971Z,8.53
2019-05-25T06:36:05.247Z,8.45
2019-05-25T06:38:34.554Z,9.20
2019-05-25T06:41:08.415Z,8.40
2019-05-25T06:43:34.881Z,8.88
2019-05-25T06:46:04.155Z,8.53
2019-05-25T06:48:33.153Z,8.53
2019-05-25T06:51:02.038Z,8.33
2019-05-25T06:53:30.919Z,8.30
2019-05-25T06:56:00.939Z,9.05
2019-05-25T06:58:29.938Z,8.55
2019-05-25T07:00:58.903Z,8.93
2019-05-25T07:03:27.981Z,8.10
2019-05-25T07:05:57.333Z,9.50
2019-05-25T07:08:26.738Z,8.65
2019-05-25T07:10:55.439Z,9.00
2019-05-25T07:13:28.355Z,8.85
2019-05-25T07:15:54.948Z,8.43
2019-05-25T07:18:25.532Z,8.68
2019-05-25T07:20:54.665Z,8.48
2019-05-25T07:25:53.703Z,8.38
2019-05-25T07:28:22.736Z,8.73
2019-05-25T07:30:51.729Z,8.35
2019-05-25T07:33:20.822Z,9.08
2019-05-25T07:35:49.778Z,9.33
2019-05-25T07:38:18.567Z,8.05
2019-05-25T07:40:47.899Z,9.00
2019-05-25T07:43:20.494Z,8.50
2019-05-25T07:45:50.913Z,9.45
2019-05-25T07:48:20.223Z,9.25
2019-05-25T07:50:49.621Z,9.47
2019-05-25T07:53:19.080Z,10.27
2019-05-25T07:55:48.217Z,9.20
2019-05-25T07:58:24.706Z,10.23
2019-05-25T08:00:54.534Z,9.45
2019-05-25T08:03:23.279Z,9.20
2019-05-25T08:05:52.163Z,9.40
2019-05-25T08:08:23.854Z,9.30
2019-05-25T08:10:53.618Z,9.90
2019-05-25T08:13:22.576Z,9.68
2019-05-25T08:15:51.304Z,9.20
2019-05-25T08:20:50.707Z,9.53
2019-05-25T08:23:24.703Z,9.88
2019-05-25T08:25:59.466Z,9.68
2019-05-25T08:28:32.575Z,9.95
2019-05-25T08:31:01.402Z,9.63
2019-05-25T08:33:29.760Z,10.35
2019-05-25T08:38:28.980Z,9.85
2019-05-25T08:40:58.385Z,10.10
2019-05-25T08:43:27.366Z,11.03
2019-05-25T08:45:56.357Z,10.32
2019-05-25T08:48:30.850Z,9.37
2019-05-25T08:51:01.117Z,10.80
2019-05-25T08:53:40.541Z,10.95
2019-05-25T08:56:02.930Z,10.45
2019-05-25T08:58:47.212Z,10.32
2019-05-25T09:01:03.831Z,10.40
2019-05-25T09:03:33.304Z,10.82
2019-05-25T09:06:03.062Z,10.78
2019-05-25T09:08:32.437Z,10.38
2019-05-25T09:11:01.678Z,10.38
2019-05-25T09:13:31.407Z,10.45
2019-05-25T09:16:00.785Z,10.05
2019-05-25T09:18:29.801Z,10.80
2019-05-25T09:20:58.770Z,11.40
2019-05-25T09:23:27.631Z,10.88
2019-05-25T09:25:56.567Z,10.28
2019-05-25T09:28:25.536Z,11.00
2019-05-25T09:30:54.759Z,11.28
2019-05-25T09:33:24.173Z,11.07
2019-05-25T09:35:53.428Z,11.15
2019-05-25T09:38:22.117Z,11.43
2019-05-25T09:40:51.286Z,11.97
2019-05-25T09:43:20.339Z,11.77
2019-05-25T09:45:49.457Z,11.47
2019-05-25T09:48:18.845Z,12.58
2019-05-25T09:50:48.486Z,12.05
2019-05-25T09:53:18.025Z,12.50
2019-05-25T09:55:47.430Z,11.50
2019-05-25T09:58:16.838Z,11.88
2019-05-25T10:00:45.648Z,11.63
2019-05-25T10:03:14.679Z,12.23
2019-05-25T10:05:44.226Z,11.83
2019-05-25T10:08:13.521Z,12.63
2019-05-25T10:10:42.289Z,11.83
2019-05-25T10:13:11.226Z,12.25
2019-05-25T10:15:40.637Z,12.27
2019-05-25T10:18:11.128Z,12.00
2019-05-25T10:20:40.104Z,12.07
2019-05-25T10:23:16.328Z,11.93
2019-05-25T10:25:45.331Z,11.70
2019-05-25T10:28:14.213Z,11.00
2019-05-25T10:30:44.294Z,11.65
2019-05-25T10:33:13.338Z,12.07
2019-05-25T10:35:43.984Z,10.50
2019-05-25T10:38:13.067Z,11.55
2019-05-25T10:40:42.821Z,10.87
2019-05-25T10:43:11.728Z,10.80
2019-05-25T10:45:40.706Z,10.38
2019-05-25T10:48:10.987Z,10.87
2019-05-25T10:53:09.522Z,10.60
2019-05-25T10:55:38.962Z,10.43
2019-05-25T10:58:07.648Z,10.03
2019-05-25T11:00:36.841Z,11.15
2019-05-25T11:03:11.870Z,9.97
2019-05-25T11:05:41.198Z,10.28
2019-05-25T11:08:10.283Z,9.55
2019-05-25T11:10:39.270Z,9.68
2019-05-25T11:15:38.177Z,9.30
2019-05-25T11:18:07.936Z,10.05
2019-05-25T11:20:37.216Z,9.10
2019-05-25T11:23:06.192Z,9.23
2019-05-25T11:25:34.976Z,10.37
2019-05-25T11:28:08.177Z,9.25
2019-05-25T11:30:36.029Z,9.58
2019-05-25T11:33:05.143Z,9.50
2019-05-25T11:35:34.443Z,8.58
2019-05-25T11:38:03.776Z,9.13
2019-05-25T11:43:04.932Z,9.98
2019-05-25T11:45:34.741Z,8.40
2019-05-25T11:48:04.977Z,9.38
2019-05-25T11:50:34.544Z,8.57
2019-05-25T11:53:06.068Z,8.45
2019-05-25T11:55:36.410Z,9.18
2019-05-25T11:58:12.792Z,8.95
2019-05-25T12:00:40.470Z,8.75
2019-05-25T12:03:09.478Z,8.80
2019-05-25T12:05:38.959Z,8.37
2019-05-25T12:08:07.948Z,8.50
2019-05-25T12:10:37.199Z,9.38
2019-05-25T12:13:06.379Z,8.30
2019-05-25T12:15:41.118Z,9.43
2019-05-25T12:18:10.174Z,8.58
2019-05-25T12:20:40.598Z,8.48
2019-05-25T12:23:09.446Z,8.93
2019-05-25T12:25:40.459Z,8.68
2019-05-25T12:28:09.669Z,8.70
